Pagrindinis puslapis
METAR-TAF:

METAR-TAF

Oro uostai :

Kirsch Municipal Airport

Sturgis, Mičiganas, Jungtinės Amerikos Valstijos

platuma: 41-48-46N, ilguma: 085-26-21W, Aukštis: 282 m

Dabartinis oras

Ataskaita buvo paskelbta 28 minutes, ne 21:55 UTC
Ramus vėjas
Temperatūra 20°C
Drėgmė 49%
Slėgis 1012 hPa
Matomumas: 16.1 km
Giedras dangus

METAR: KIRS 202155Z AUTO 00000KT 10SM CLR 20/09 A2989 RMK AO2 T01990094

Laikas: 18:23 (22:23 UTC)


TAF: trūkstamas

Orai ataskaitas ir orų prognozės (METAR, TAF).

turimą stotys yra geltonos ir raudonos taškus žemėlapyje.

Perkelti pele per norėdami pamatyti stoties vardą.

Tada spustelėkite, norėdami matyti oro stebėjimo ir prognozės.

Norėdami pakeisti žemėlapį: spustelėkite ant žalios mygtukų su juodo kryžiaus žemyn,; žalią mygtuką su brūkšneliu, jei norite nutolinti; arba žalių rodyklių gretimoms žemėlapius.


METAR-TAF: